sensor_id;sensor_type;location;lat;lon;timestamp;P1;durP1;ratioP1;P2;durP2;ratioP2
79149;SDS011;68563;45.644;13.782;2023-12-22T00:01:53;34.35;;;21.88;;
79149;SDS011;68563;45.644;13.782;2023-12-22T00:04:18;34.08;;;21.58;;
79149;SDS011;68563;45.644;13.782;2023-12-22T00:06:43;33.47;;;22.10;;
79149;SDS011;68563;45.644;13.782;2023-12-22T00:09:09;35.35;;;20.30;;
79149;SDS011;68563;45.644;13.782;2023-12-22T00:11:35;30.13;;;20.85;;
79149;SDS011;68563;45.644;13.782;2023-12-22T00:14:00;33.58;;;20.98;;
79149;SDS011;68563;45.644;13.782;2023-12-22T00:16:25;30.60;;;19.48;;
79149;SDS011;68563;45.644;13.782;2023-12-22T00:18:51;33.30;;;20.85;;
79149;SDS011;68563;45.644;13.782;2023-12-22T00:21:17;35.75;;;22.90;;
79149;SDS011;68563;45.644;13.782;2023-12-22T00:23:43;36.58;;;22.27;;
79149;SDS011;68563;45.644;13.782;2023-12-22T00:26:08;38.72;;;23.33;;
79149;SDS011;68563;45.644;13.782;2023-12-22T00:28:33;38.08;;;23.85;;
79149;SDS011;68563;45.644;13.782;2023-12-22T00:30:59;33.13;;;21.42;;
79149;SDS011;68563;45.644;13.782;2023-12-22T00:33:26;34.85;;;22.50;;
79149;SDS011;68563;45.644;13.782;2023-12-22T00:35:51;35.85;;;22.85;;
79149;SDS011;68563;45.644;13.782;2023-12-22T00:38:17;36.40;;;23.63;;
79149;SDS011;68563;45.644;13.782;2023-12-22T00:40:42;36.92;;;23.65;;
79149;SDS011;68563;45.644;13.782;2023-12-22T00:43:08;37.97;;;23.48;;
79149;SDS011;68563;45.644;13.782;2023-12-22T00:45:33;37.35;;;23.17;;
79149;SDS011;68563;45.644;13.782;2023-12-22T00:47:59;36.70;;;23.15;;
79149;SDS011;68563;45.644;13.782;2023-12-22T00:50:24;38.70;;;25.13;;
79149;SDS011;68563;45.644;13.782;2023-12-22T00:52:49;39.72;;;23.27;;
79149;SDS011;68563;45.644;13.782;2023-12-22T00:55:15;38.60;;;23.25;;
79149;SDS011;68563;45.644;13.782;2023-12-22T00:57:40;38.17;;;23.63;;
79149;SDS011;68563;45.644;13.782;2023-12-22T01:00:06;36.35;;;22.58;;
79149;SDS011;68563;45.644;13.782;2023-12-22T01:02:35;34.90;;;23.23;;
79149;SDS011;68563;45.644;13.782;2023-12-22T01:05:01;40.78;;;23.88;;
79149;SDS011;68563;45.644;13.782;2023-12-22T01:07:26;37.88;;;23.33;;
79149;SDS011;68563;45.644;13.782;2023-12-22T01:09:52;37.55;;;23.48;;
79149;SDS011;68563;45.644;13.782;2023-12-22T01:12:17;37.90;;;23.45;;
79149;SDS011;68563;45.644;13.782;2023-12-22T01:14:42;36.65;;;22.50;;
79149;SDS011;68563;45.644;13.782;2023-12-22T01:17:10;38.60;;;22.67;;
79149;SDS011;68563;45.644;13.782;2023-12-22T01:19:35;35.95;;;23.15;;
79149;SDS011;68563;45.644;13.782;2023-12-22T01:22:01;39.03;;;24.58;;
79149;SDS011;68563;45.644;13.782;2023-12-22T01:24:26;40.05;;;24.52;;
79149;SDS011;68563;45.644;13.782;2023-12-22T01:26:52;37.78;;;23.98;;
79149;SDS011;68563;45.644;13.782;2023-12-22T01:29:17;38.28;;;24.75;;
79149;SDS011;68563;45.644;13.782;2023-12-22T01:31:42;40.00;;;24.35;;
79149;SDS011;68563;45.644;13.782;2023-12-22T01:34:08;38.58;;;24.85;;
79149;SDS011;68563;45.644;13.782;2023-12-22T01:36:34;37.80;;;23.27;;
79149;SDS011;68563;45.644;13.782;2023-12-22T01:38:59;41.08;;;23.92;;
79149;SDS011;68563;45.644;13.782;2023-12-22T01:41:25;41.17;;;24.13;;
79149;SDS011;68563;45.644;13.782;2023-12-22T01:43:50;38.70;;;24.60;;
79149;SDS011;68563;45.644;13.782;2023-12-22T01:46:16;43.08;;;25.30;;
79149;SDS011;68563;45.644;13.782;2023-12-22T01:48:42;37.50;;;23.80;;
79149;SDS011;68563;45.644;13.782;2023-12-22T01:51:08;42.28;;;25.35;;
79149;SDS011;68563;45.644;13.782;2023-12-22T01:53:33;39.60;;;24.33;;
79149;SDS011;68563;45.644;13.782;2023-12-22T01:56:00;38.28;;;23.58;;
79149;SDS011;68563;45.644;13.782;2023-12-22T01:58:27;40.25;;;24.77;;
79149;SDS011;68563;45.644;13.782;2023-12-22T02:00:54;41.72;;;25.13;;
79149;SDS011;68563;45.644;13.782;2023-12-22T02:03:19;39.17;;;24.77;;
79149;SDS011;68563;45.644;13.782;2023-12-22T02:05:46;44.30;;;26.50;;
79149;SDS011;68563;45.644;13.782;2023-12-22T02:08:12;39.92;;;24.63;;
79149;SDS011;68563;45.644;13.782;2023-12-22T02:10:37;37.50;;;24.23;;
79149;SDS011;68563;45.644;13.782;2023-12-22T02:13:06;40.33;;;26.15;;
79149;SDS011;68563;45.644;13.782;2023-12-22T02:15:34;38.75;;;24.90;;
79149;SDS011;68563;45.644;13.782;2023-12-22T02:18:07;41.92;;;24.73;;
79149;SDS011;68563;45.644;13.782;2023-12-22T02:20:33;40.28;;;25.15;;
79149;SDS011;68563;45.644;13.782;2023-12-22T02:22:58;43.95;;;25.52;;
79149;SDS011;68563;45.644;13.782;2023-12-22T02:25:24;38.03;;;23.33;;
79149;SDS011;68563;45.644;13.782;2023-12-22T02:27:50;37.30;;;24.63;;
79149;SDS011;68563;45.644;13.782;2023-12-22T02:30:29;40.08;;;24.15;;
79149;SDS011;68563;45.644;13.782;2023-12-22T02:32:59;37.55;;;24.27;;
79149;SDS011;68563;45.644;13.782;2023-12-22T02:35:28;42.90;;;26.33;;
79149;SDS011;68563;45.644;13.782;2023-12-22T02:37:58;41.55;;;25.75;;
79149;SDS011;68563;45.644;13.782;2023-12-22T02:40:25;38.17;;;25.52;;
79149;SDS011;68563;45.644;13.782;2023-12-22T02:42:52;40.92;;;25.25;;
79149;SDS011;68563;45.644;13.782;2023-12-22T02:45:18;36.45;;;22.60;;
79149;SDS011;68563;45.644;13.782;2023-12-22T02:47:45;39.85;;;26.08;;
79149;SDS011;68563;45.644;13.782;2023-12-22T02:50:11;45.55;;;25.92;;
79149;SDS011;68563;45.644;13.782;2023-12-22T02:52:39;41.33;;;25.38;;
79149;SDS011;68563;45.644;13.782;2023-12-22T02:55:04;40.08;;;25.77;;
79149;SDS011;68563;45.644;13.782;2023-12-22T02:57:30;39.67;;;24.20;;
79149;SDS011;68563;45.644;13.782;2023-12-22T02:59:56;39.67;;;22.77;;
79149;SDS011;68563;45.644;13.782;2023-12-22T03:02:22;39.95;;;25.38;;
79149;SDS011;68563;45.644;13.782;2023-12-22T03:04:47;42.53;;;25.50;;
79149;SDS011;68563;45.644;13.782;2023-12-22T03:07:13;38.10;;;24.92;;
79149;SDS011;68563;45.644;13.782;2023-12-22T03:09:39;44.47;;;26.30;;
79149;SDS011;68563;45.644;13.782;2023-12-22T03:12:05;40.50;;;25.52;;
79149;SDS011;68563;45.644;13.782;2023-12-22T03:14:32;43.22;;;26.58;;
79149;SDS011;68563;45.644;13.782;2023-12-22T03:17:04;45.58;;;27.20;;
79149;SDS011;68563;45.644;13.782;2023-12-22T03:19:31;41.00;;;25.48;;
79149;SDS011;68563;45.644;13.782;2023-12-22T03:21:57;44.55;;;27.02;;
79149;SDS011;68563;45.644;13.782;2023-12-22T03:24:23;43.15;;;27.10;;
79149;SDS011;68563;45.644;13.782;2023-12-22T03:26:49;45.17;;;26.63;;
79149;SDS011;68563;45.644;13.782;2023-12-22T03:29:15;43.28;;;26.45;;
79149;SDS011;68563;45.644;13.782;2023-12-22T03:31:40;44.47;;;27.27;;
79149;SDS011;68563;45.644;13.782;2023-12-22T03:34:06;43.55;;;27.23;;
79149;SDS011;68563;45.644;13.782;2023-12-22T03:36:32;46.63;;;26.65;;
79149;SDS011;68563;45.644;13.782;2023-12-22T03:38:57;44.78;;;27.42;;
79149;SDS011;68563;45.644;13.782;2023-12-22T03:41:22;42.97;;;26.95;;
79149;SDS011;68563;45.644;13.782;2023-12-22T03:43:48;48.65;;;28.27;;
79149;SDS011;68563;45.644;13.782;2023-12-22T03:46:13;43.22;;;26.60;;
79149;SDS011;68563;45.644;13.782;2023-12-22T03:48:39;44.05;;;27.63;;
79149;SDS011;68563;45.644;13.782;2023-12-22T03:51:04;46.45;;;28.15;;
79149;SDS011;68563;45.644;13.782;2023-12-22T03:53:30;45.05;;;27.77;;
79149;SDS011;68563;45.644;13.782;2023-12-22T03:55:55;41.58;;;26.33;;
79149;SDS011;68563;45.644;13.782;2023-12-22T03:58:21;44.58;;;27.23;;
79149;SDS011;68563;45.644;13.782;2023-12-22T04:00:46;45.75;;;27.88;;
79149;SDS011;68563;45.644;13.782;2023-12-22T04:03:12;45.63;;;27.92;;
79149;SDS011;68563;45.644;13.782;2023-12-22T04:05:38;44.13;;;27.40;;
79149;SDS011;68563;45.644;13.782;2023-12-22T04:08:03;46.55;;;27.67;;
79149;SDS011;68563;45.644;13.782;2023-12-22T04:10:29;45.33;;;27.95;;
79149;SDS011;68563;45.644;13.782;2023-12-22T04:12:54;44.42;;;26.98;;
79149;SDS011;68563;45.644;13.782;2023-12-22T04:15:20;43.35;;;27.25;;
79149;SDS011;68563;45.644;13.782;2023-12-22T04:17:45;42.78;;;26.55;;
79149;SDS011;68563;45.644;13.782;2023-12-22T04:20:11;42.15;;;26.10;;
79149;SDS011;68563;45.644;13.782;2023-12-22T04:22:38;46.92;;;27.60;;
79149;SDS011;68563;45.644;13.782;2023-12-22T04:25:04;41.65;;;25.77;;
79149;SDS011;68563;45.644;13.782;2023-12-22T04:27:31;45.88;;;27.00;;
79149;SDS011;68563;45.644;13.782;2023-12-22T04:29:56;44.40;;;26.65;;
79149;SDS011;68563;45.644;13.782;2023-12-22T04:32:22;44.90;;;26.20;;
79149;SDS011;68563;45.644;13.782;2023-12-22T04:34:47;41.85;;;26.10;;
79149;SDS011;68563;45.644;13.782;2023-12-22T04:37:12;43.25;;;25.52;;
79149;SDS011;68563;45.644;13.782;2023-12-22T04:39:38;44.60;;;25.17;;
79149;SDS011;68563;45.644;13.782;2023-12-22T04:42:03;39.85;;;24.88;;
79149;SDS011;68563;45.644;13.782;2023-12-22T04:44:28;40.70;;;24.48;;
79149;SDS011;68563;45.644;13.782;2023-12-22T04:46:54;39.10;;;23.83;;
79149;SDS011;68563;45.644;13.782;2023-12-22T04:49:19;42.72;;;24.55;;
79149;SDS011;68563;45.644;13.782;2023-12-22T04:51:45;39.63;;;24.63;;
79149;SDS011;68563;45.644;13.782;2023-12-22T04:54:10;39.63;;;24.52;;
79149;SDS011;68563;45.644;13.782;2023-12-22T04:56:35;40.25;;;24.75;;
79149;SDS011;68563;45.644;13.782;2023-12-22T04:59:01;40.00;;;24.33;;
79149;SDS011;68563;45.644;13.782;2023-12-22T05:01:26;34.47;;;21.77;;
79149;SDS011;68563;45.644;13.782;2023-12-22T05:03:52;33.42;;;20.05;;
79149;SDS011;68563;45.644;13.782;2023-12-22T05:06:20;34.25;;;20.60;;
79149;SDS011;68563;45.644;13.782;2023-12-22T05:08:45;33.60;;;20.80;;
79149;SDS011;68563;45.644;13.782;2023-12-22T05:11:11;34.53;;;20.10;;
79149;SDS011;68563;45.644;13.782;2023-12-22T05:13:37;28.23;;;16.83;;
79149;SDS011;68563;45.644;13.782;2023-12-22T05:16:02;34.13;;;21.60;;
79149;SDS011;68563;45.644;13.782;2023-12-22T05:18:29;37.65;;;22.88;;
79149;SDS011;68563;45.644;13.782;2023-12-22T05:20:55;38.45;;;22.38;;
79149;SDS011;68563;45.644;13.782;2023-12-22T05:23:20;43.33;;;25.52;;
79149;SDS011;68563;45.644;13.782;2023-12-22T05:25:45;43.35;;;25.70;;
79149;SDS011;68563;45.644;13.782;2023-12-22T05:28:11;40.83;;;25.83;;
79149;SDS011;68563;45.644;13.782;2023-12-22T05:30:36;42.30;;;25.40;;
79149;SDS011;68563;45.644;13.782;2023-12-22T05:33:01;45.38;;;24.92;;
79149;SDS011;68563;45.644;13.782;2023-12-22T05:35:27;44.08;;;26.77;;
79149;SDS011;68563;45.644;13.782;2023-12-22T05:37:52;44.17;;;27.17;;
79149;SDS011;68563;45.644;13.782;2023-12-22T05:40:18;46.97;;;27.73;;
79149;SDS011;68563;45.644;13.782;2023-12-22T05:42:43;43.60;;;27.52;;
79149;SDS011;68563;45.644;13.782;2023-12-22T05:45:08;45.45;;;26.60;;
79149;SDS011;68563;45.644;13.782;2023-12-22T05:47:36;45.13;;;27.02;;
79149;SDS011;68563;45.644;13.782;2023-12-22T05:50:01;47.15;;;27.10;;
79149;SDS011;68563;45.644;13.782;2023-12-22T05:52:27;46.47;;;28.00;;
79149;SDS011;68563;45.644;13.782;2023-12-22T05:54:53;45.78;;;27.38;;
79149;SDS011;68563;45.644;13.782;2023-12-22T05:57:19;54.03;;;31.88;;
79149;SDS011;68563;45.644;13.782;2023-12-22T05:59:44;46.20;;;28.98;;
79149;SDS011;68563;45.644;13.782;2023-12-22T06:02:10;49.92;;;28.85;;
79149;SDS011;68563;45.644;13.782;2023-12-22T06:04:35;45.22;;;27.98;;
79149;SDS011;68563;45.644;13.782;2023-12-22T06:07:01;47.17;;;28.50;;
79149;SDS011;68563;45.644;13.782;2023-12-22T06:09:26;45.65;;;27.63;;
79149;SDS011;68563;45.644;13.782;2023-12-22T06:11:51;46.95;;;28.30;;
79149;SDS011;68563;45.644;13.782;2023-12-22T06:14:17;46.78;;;27.55;;
79149;SDS011;68563;45.644;13.782;2023-12-22T06:16:42;47.70;;;28.13;;
79149;SDS011;68563;45.644;13.782;2023-12-22T06:19:08;42.63;;;26.85;;
79149;SDS011;68563;45.644;13.782;2023-12-22T06:21:37;42.00;;;26.50;;
79149;SDS011;68563;45.644;13.782;2023-12-22T06:24:03;44.60;;;26.70;;
79149;SDS011;68563;45.644;13.782;2023-12-22T06:26:28;43.28;;;25.15;;
79149;SDS011;68563;45.644;13.782;2023-12-22T06:28:54;44.70;;;25.90;;
79149;SDS011;68563;45.644;13.782;2023-12-22T06:31:20;47.60;;;26.90;;
79149;SDS011;68563;45.644;13.782;2023-12-22T06:33:46;45.13;;;26.75;;
79149;SDS011;68563;45.644;13.782;2023-12-22T06:38:45;45.55;;;26.00;;
79149;SDS011;68563;45.644;13.782;2023-12-22T06:41:24;42.85;;;26.02;;
79149;SDS011;68563;45.644;13.782;2023-12-22T06:43:51;39.40;;;25.13;;
79149;SDS011;68563;45.644;13.782;2023-12-22T06:46:21;40.53;;;25.00;;
79149;SDS011;68563;45.644;13.782;2023-12-22T06:48:48;42.55;;;26.88;;
79149;SDS011;68563;45.644;13.782;2023-12-22T06:51:23;43.97;;;26.00;;
79149;SDS011;68563;45.644;13.782;2023-12-22T06:53:51;42.08;;;25.85;;
79149;SDS011;68563;45.644;13.782;2023-12-22T06:56:20;42.85;;;24.83;;
79149;SDS011;68563;45.644;13.782;2023-12-22T07:01:19;40.85;;;22.55;;
79149;SDS011;68563;45.644;13.782;2023-12-22T07:03:50;42.75;;;26.10;;
79149;SDS011;68563;45.644;13.782;2023-12-22T07:06:16;41.03;;;25.55;;
79149;SDS011;68563;45.644;13.782;2023-12-22T07:08:42;41.45;;;25.38;;
79149;SDS011;68563;45.644;13.782;2023-12-22T07:11:11;41.80;;;26.63;;
79149;SDS011;68563;45.644;13.782;2023-12-22T07:13:37;44.33;;;25.95;;
79149;SDS011;68563;45.644;13.782;2023-12-22T07:16:03;50.20;;;27.10;;
79149;SDS011;68563;45.644;13.782;2023-12-22T07:18:29;40.83;;;24.00;;
79149;SDS011;68563;45.644;13.782;2023-12-22T07:20:59;42.42;;;26.48;;
79149;SDS011;68563;45.644;13.782;2023-12-22T07:23:25;42.28;;;24.65;;
79149;SDS011;68563;45.644;13.782;2023-12-22T07:25:50;39.53;;;23.35;;
79149;SDS011;68563;45.644;13.782;2023-12-22T07:28:16;39.03;;;24.33;;
79149;SDS011;68563;45.644;13.782;2023-12-22T07:30:41;39.65;;;23.42;;
79149;SDS011;68563;45.644;13.782;2023-12-22T07:33:07;40.55;;;24.95;;
79149;SDS011;68563;45.644;13.782;2023-12-22T07:35:33;42.47;;;26.48;;
79149;SDS011;68563;45.644;13.782;2023-12-22T07:37:59;42.75;;;27.38;;
79149;SDS011;68563;45.644;13.782;2023-12-22T07:40:25;45.20;;;28.17;;
79149;SDS011;68563;45.644;13.782;2023-12-22T07:42:50;46.55;;;27.17;;
79149;SDS011;68563;45.644;13.782;2023-12-22T07:45:16;47.58;;;27.20;;
79149;SDS011;68563;45.644;13.782;2023-12-22T07:47:41;47.13;;;27.10;;
79149;SDS011;68563;45.644;13.782;2023-12-22T07:50:07;45.53;;;26.92;;
79149;SDS011;68563;45.644;13.782;2023-12-22T07:52:34;47.72;;;27.48;;
79149;SDS011;68563;45.644;13.782;2023-12-22T07:55:03;47.17;;;27.67;;
79149;SDS011;68563;45.644;13.782;2023-12-22T07:57:30;43.42;;;27.10;;
79149;SDS011;68563;45.644;13.782;2023-12-22T07:59:55;45.47;;;26.98;;
79149;SDS011;68563;45.644;13.782;2023-12-22T08:02:21;47.80;;;26.02;;
79149;SDS011;68563;45.644;13.782;2023-12-22T08:04:47;42.72;;;27.02;;
79149;SDS011;68563;45.644;13.782;2023-12-22T08:07:14;44.80;;;26.25;;
79149;SDS011;68563;45.644;13.782;2023-12-22T08:09:39;43.50;;;26.40;;
79149;SDS011;68563;45.644;13.782;2023-12-22T08:12:05;42.05;;;27.10;;
79149;SDS011;68563;45.644;13.782;2023-12-22T08:14:30;44.17;;;27.17;;
79149;SDS011;68563;45.644;13.782;2023-12-22T08:16:56;48.65;;;28.75;;
79149;SDS011;68563;45.644;13.782;2023-12-22T08:19:21;42.17;;;28.15;;
79149;SDS011;68563;45.644;13.782;2023-12-22T08:21:46;48.35;;;29.10;;
79149;SDS011;68563;45.644;13.782;2023-12-22T08:24:12;49.33;;;26.23;;
79149;SDS011;68563;45.644;13.782;2023-12-22T08:26:37;47.97;;;29.60;;
79149;SDS011;68563;45.644;13.782;2023-12-22T08:29:03;47.45;;;28.42;;
79149;SDS011;68563;45.644;13.782;2023-12-22T08:31:28;48.65;;;30.17;;
79149;SDS011;68563;45.644;13.782;2023-12-22T08:33:53;48.35;;;29.83;;
79149;SDS011;68563;45.644;13.782;2023-12-22T08:36:19;45.30;;;28.58;;
79149;SDS011;68563;45.644;13.782;2023-12-22T08:38:44;49.00;;;30.63;;
79149;SDS011;68563;45.644;13.782;2023-12-22T08:41:10;49.85;;;31.92;;
79149;SDS011;68563;45.644;13.782;2023-12-22T08:43:36;57.92;;;32.65;;
79149;SDS011;68563;45.644;13.782;2023-12-22T08:46:03;55.92;;;32.50;;
79149;SDS011;68563;45.644;13.782;2023-12-22T08:48:29;52.33;;;32.40;;
79149;SDS011;68563;45.644;13.782;2023-12-22T08:50:54;53.88;;;30.17;;
79149;SDS011;68563;45.644;13.782;2023-12-22T08:53:20;56.45;;;32.58;;
79149;SDS011;68563;45.644;13.782;2023-12-22T08:55:45;52.30;;;32.40;;
79149;SDS011;68563;45.644;13.782;2023-12-22T08:58:10;53.28;;;32.35;;
79149;SDS011;68563;45.644;13.782;2023-12-22T09:00:36;53.15;;;32.00;;
79149;SDS011;68563;45.644;13.782;2023-12-22T09:03:01;48.95;;;30.25;;
79149;SDS011;68563;45.644;13.782;2023-12-22T09:05:27;47.97;;;29.67;;
79149;SDS011;68563;45.644;13.782;2023-12-22T09:07:52;51.92;;;31.10;;
79149;SDS011;68563;45.644;13.782;2023-12-22T09:10:18;51.47;;;31.63;;
79149;SDS011;68563;45.644;13.782;2023-12-22T09:12:44;50.72;;;32.35;;
79149;SDS011;68563;45.644;13.782;2023-12-22T09:15:09;48.83;;;30.98;;
79149;SDS011;68563;45.644;13.782;2023-12-22T09:17:35;52.85;;;32.65;;
79149;SDS011;68563;45.644;13.782;2023-12-22T09:20:00;51.90;;;30.40;;
79149;SDS011;68563;45.644;13.782;2023-12-22T09:22:26;51.50;;;31.17;;
79149;SDS011;68563;45.644;13.782;2023-12-22T09:24:51;52.17;;;31.38;;
79149;SDS011;68563;45.644;13.782;2023-12-22T09:27:16;50.90;;;31.73;;
79149;SDS011;68563;45.644;13.782;2023-12-22T09:29:42;56.05;;;32.33;;
79149;SDS011;68563;45.644;13.782;2023-12-22T09:32:07;50.22;;;31.38;;
79149;SDS011;68563;45.644;13.782;2023-12-22T09:34:33;52.83;;;33.28;;
79149;SDS011;68563;45.644;13.782;2023-12-22T09:36:58;53.80;;;32.80;;
79149;SDS011;68563;45.644;13.782;2023-12-22T09:39:23;54.80;;;32.70;;
79149;SDS011;68563;45.644;13.782;2023-12-22T09:41:49;51.75;;;32.08;;
79149;SDS011;68563;45.644;13.782;2023-12-22T09:44:17;56.15;;;33.10;;
79149;SDS011;68563;45.644;13.782;2023-12-22T09:46:46;50.40;;;31.40;;
79149;SDS011;68563;45.644;13.782;2023-12-22T09:49:14;50.85;;;31.27;;
79149;SDS011;68563;45.644;13.782;2023-12-22T09:51:40;53.50;;;32.95;;
79149;SDS011;68563;45.644;13.782;2023-12-22T09:54:08;49.97;;;30.63;;
79149;SDS011;68563;45.644;13.782;2023-12-22T09:56:34;50.80;;;31.33;;
79149;SDS011;68563;45.644;13.782;2023-12-22T09:59:02;52.63;;;31.35;;
79149;SDS011;68563;45.644;13.782;2023-12-22T10:01:28;52.00;;;32.25;;
79149;SDS011;68563;45.644;13.782;2023-12-22T10:03:54;51.55;;;32.38;;
79149;SDS011;68563;45.644;13.782;2023-12-22T10:06:20;53.28;;;33.20;;
79149;SDS011;68563;45.644;13.782;2023-12-22T10:08:46;52.63;;;32.80;;
79149;SDS011;68563;45.644;13.782;2023-12-22T10:11:15;51.15;;;32.45;;
79149;SDS011;68563;45.644;13.782;2023-12-22T10:13:42;50.83;;;31.70;;
79149;SDS011;68563;45.644;13.782;2023-12-22T10:16:08;50.92;;;31.75;;
79149;SDS011;68563;45.644;13.782;2023-12-22T10:18:34;49.45;;;30.38;;
79149;SDS011;68563;45.644;13.782;2023-12-22T10:21:00;51.90;;;32.40;;
79149;SDS011;68563;45.644;13.782;2023-12-22T10:23:26;47.47;;;30.38;;
79149;SDS011;68563;45.644;13.782;2023-12-22T10:25:51;52.83;;;32.25;;
79149;SDS011;68563;45.644;13.782;2023-12-22T10:28:16;49.10;;;31.42;;
79149;SDS011;68563;45.644;13.782;2023-12-22T10:30:43;51.25;;;32.50;;
79149;SDS011;68563;45.644;13.782;2023-12-22T10:33:11;55.92;;;32.95;;
79149;SDS011;68563;45.644;13.782;2023-12-22T10:35:36;50.33;;;31.70;;
79149;SDS011;68563;45.644;13.782;2023-12-22T10:38:01;50.83;;;31.45;;
79149;SDS011;68563;45.644;13.782;2023-12-22T10:40:29;50.80;;;32.92;;
79149;SDS011;68563;45.644;13.782;2023-12-22T10:42:54;52.67;;;32.58;;
79149;SDS011;68563;45.644;13.782;2023-12-22T10:45:20;50.65;;;32.25;;
79149;SDS011;68563;45.644;13.782;2023-12-22T10:47:48;50.70;;;32.70;;
79149;SDS011;68563;45.644;13.782;2023-12-22T10:50:15;52.22;;;31.73;;
79149;SDS011;68563;45.644;13.782;2023-12-22T10:52:48;52.78;;;32.63;;
79149;SDS011;68563;45.644;13.782;2023-12-22T10:55:15;53.72;;;33.10;;
79149;SDS011;68563;45.644;13.782;2023-12-22T10:57:41;56.45;;;34.88;;
79149;SDS011;68563;45.644;13.782;2023-12-22T11:00:09;52.97;;;31.25;;
79149;SDS011;68563;45.644;13.782;2023-12-22T11:02:37;49.35;;;32.85;;
79149;SDS011;68563;45.644;13.782;2023-12-22T11:05:07;51.95;;;31.55;;
79149;SDS011;68563;45.644;13.782;2023-12-22T11:07:36;55.13;;;33.35;;
79149;SDS011;68563;45.644;13.782;2023-12-22T11:10:03;53.83;;;32.70;;
79149;SDS011;68563;45.644;13.782;2023-12-22T11:12:30;50.53;;;32.67;;
79149;SDS011;68563;45.644;13.782;2023-12-22T11:14:58;54.22;;;33.47;;
79149;SDS011;68563;45.644;13.782;2023-12-22T11:17:25;48.50;;;31.75;;
79149;SDS011;68563;45.644;13.782;2023-12-22T11:19:53;52.05;;;32.90;;
79149;SDS011;68563;45.644;13.782;2023-12-22T11:22:19;50.30;;;32.72;;
79149;SDS011;68563;45.644;13.782;2023-12-22T11:24:46;51.97;;;31.63;;
79149;SDS011;68563;45.644;13.782;2023-12-22T11:27:15;56.30;;;33.65;;
79149;SDS011;68563;45.644;13.782;2023-12-22T11:29:43;50.28;;;33.53;;
79149;SDS011;68563;45.644;13.782;2023-12-22T11:32:13;51.00;;;31.50;;
79149;SDS011;68563;45.644;13.782;2023-12-22T11:34:40;56.28;;;34.47;;
79149;SDS011;68563;45.644;13.782;2023-12-22T11:37:09;53.45;;;32.97;;
79149;SDS011;68563;45.644;13.782;2023-12-22T11:39:36;52.60;;;33.83;;
79149;SDS011;68563;45.644;13.782;2023-12-22T11:42:01;53.03;;;33.95;;
79149;SDS011;68563;45.644;13.782;2023-12-22T11:44:29;58.72;;;35.35;;
79149;SDS011;68563;45.644;13.782;2023-12-22T11:47:04;54.70;;;33.97;;
79149;SDS011;68563;45.644;13.782;2023-12-22T11:49:34;51.58;;;32.63;;
79149;SDS011;68563;45.644;13.782;2023-12-22T11:54:46;52.75;;;30.90;;
79149;SDS011;68563;45.644;13.782;2023-12-22T11:59:56;58.50;;;34.55;;
79149;SDS011;68563;45.644;13.782;2023-12-22T12:02:23;54.97;;;34.83;;
79149;SDS011;68563;45.644;13.782;2023-12-22T12:04:52;58.95;;;35.00;;
79149;SDS011;68563;45.644;13.782;2023-12-22T12:13:21;56.85;;;33.60;;
79149;SDS011;68563;45.644;13.782;2023-12-22T12:15:51;55.45;;;33.85;;
79149;SDS011;68563;45.644;13.782;2023-12-22T12:18:21;51.47;;;32.88;;
79149;SDS011;68563;45.644;13.782;2023-12-22T12:20:48;56.75;;;35.25;;
79149;SDS011;68563;45.644;13.782;2023-12-22T12:23:15;53.28;;;31.60;;
79149;SDS011;68563;45.644;13.782;2023-12-22T12:25:40;54.75;;;34.50;;
79149;SDS011;68563;45.644;13.782;2023-12-22T12:28:07;54.90;;;34.60;;
79149;SDS011;68563;45.644;13.782;2023-12-22T12:30:36;58.45;;;34.40;;
79149;SDS011;68563;45.644;13.782;2023-12-22T12:33:09;53.80;;;33.47;;
79149;SDS011;68563;45.644;13.782;2023-12-22T12:35:37;54.67;;;32.53;;
79149;SDS011;68563;45.644;13.782;2023-12-22T12:38:03;53.65;;;33.00;;
79149;SDS011;68563;45.644;13.782;2023-12-22T12:40:29;51.45;;;32.58;;
79149;SDS011;68563;45.644;13.782;2023-12-22T12:42:57;51.03;;;31.77;;
79149;SDS011;68563;45.644;13.782;2023-12-22T12:45:23;54.33;;;33.35;;
79149;SDS011;68563;45.644;13.782;2023-12-22T12:50:22;54.95;;;34.13;;
79149;SDS011;68563;45.644;13.782;2023-12-22T12:52:48;54.40;;;33.40;;
79149;SDS011;68563;45.644;13.782;2023-12-22T12:55:16;51.33;;;33.40;;
79149;SDS011;68563;45.644;13.782;2023-12-22T12:57:43;53.25;;;33.58;;
79149;SDS011;68563;45.644;13.782;2023-12-22T13:00:09;53.70;;;33.05;;
79149;SDS011;68563;45.644;13.782;2023-12-22T13:02:35;49.35;;;31.27;;
79149;SDS011;68563;45.644;13.782;2023-12-22T13:05:01;51.40;;;30.50;;
79149;SDS011;68563;45.644;13.782;2023-12-22T13:07:29;47.08;;;30.13;;
79149;SDS011;68563;45.644;13.782;2023-12-22T13:09:55;45.83;;;28.75;;
79149;SDS011;68563;45.644;13.782;2023-12-22T13:12:24;41.03;;;26.15;;
79149;SDS011;68563;45.644;13.782;2023-12-22T13:14:50;42.17;;;27.15;;
79149;SDS011;68563;45.644;13.782;2023-12-22T13:17:16;42.30;;;26.25;;
79149;SDS011;68563;45.644;13.782;2023-12-22T13:19:41;44.38;;;27.25;;
79149;SDS011;68563;45.644;13.782;2023-12-22T13:22:07;49.70;;;30.58;;
79149;SDS011;68563;45.644;13.782;2023-12-22T13:24:33;48.63;;;31.73;;
79149;SDS011;68563;45.644;13.782;2023-12-22T13:27:02;52.00;;;30.63;;
79149;SDS011;68563;45.644;13.782;2023-12-22T13:29:28;50.97;;;31.35;;
79149;SDS011;68563;45.644;13.782;2023-12-22T13:31:54;50.00;;;32.30;;
79149;SDS011;68563;45.644;13.782;2023-12-22T13:34:20;51.35;;;32.38;;
79149;SDS011;68563;45.644;13.782;2023-12-22T13:36:46;48.83;;;30.85;;
79149;SDS011;68563;45.644;13.782;2023-12-22T13:39:12;48.10;;;30.88;;
79149;SDS011;68563;45.644;13.782;2023-12-22T13:41:38;52.20;;;31.30;;
79149;SDS011;68563;45.644;13.782;2023-12-22T13:44:10;49.42;;;31.02;;
79149;SDS011;68563;45.644;13.782;2023-12-22T13:46:36;43.30;;;24.77;;
79149;SDS011;68563;45.644;13.782;2023-12-22T13:49:05;37.38;;;23.35;;
79149;SDS011;68563;45.644;13.782;2023-12-22T13:51:39;34.85;;;21.70;;
79149;SDS011;68563;45.644;13.782;2023-12-22T13:54:08;43.30;;;24.98;;
79149;SDS011;68563;45.644;13.782;2023-12-22T13:56:34;34.72;;;22.40;;
79149;SDS011;68563;45.644;13.782;2023-12-22T13:59:01;37.30;;;21.38;;
79149;SDS011;68563;45.644;13.782;2023-12-22T14:01:27;31.98;;;21.77;;
79149;SDS011;68563;45.644;13.782;2023-12-22T14:03:52;32.92;;;20.45;;
79149;SDS011;68563;45.644;13.782;2023-12-22T14:06:18;32.00;;;20.67;;
79149;SDS011;68563;45.644;13.782;2023-12-22T14:08:43;35.50;;;20.98;;
79149;SDS011;68563;45.644;13.782;2023-12-22T14:11:09;37.63;;;21.95;;
79149;SDS011;68563;45.644;13.782;2023-12-22T14:13:34;37.88;;;23.35;;
79149;SDS011;68563;45.644;13.782;2023-12-22T14:16:08;32.85;;;21.90;;
79149;SDS011;68563;45.644;13.782;2023-12-22T14:18:34;33.65;;;20.40;;
79149;SDS011;68563;45.644;13.782;2023-12-22T14:20:59;37.60;;;20.60;;
79149;SDS011;68563;45.644;13.782;2023-12-22T14:23:25;33.28;;;19.75;;